createdAt,value
2019-01-08T00:01:12.600Z,3
2019-01-08T00:06:15.054Z,3
2019-01-08T00:11:17.575Z,3.1
2019-01-08T00:16:20.036Z,3.2
2019-01-08T00:21:22.422Z,3.2
2019-01-08T00:26:24.883Z,3.2
2019-01-08T00:31:27.327Z,3.2
2019-01-08T00:36:29.791Z,3.2
2019-01-08T00:41:32.284Z,3.2
2019-01-08T00:46:34.703Z,3.2
2019-01-08T00:51:37.156Z,3.1
2019-01-08T00:56:39.614Z,3
2019-01-08T01:01:42.167Z,2.9
2019-01-08T01:06:44.545Z,2.9
2019-01-08T01:11:47.005Z,3
2019-01-08T01:16:49.452Z,3
2019-01-08T01:21:51.940Z,3
2019-01-08T01:26:54.355Z,3
2019-01-08T01:31:57.162Z,3
2019-01-08T01:36:59.270Z,2.9
2019-01-08T01:42:01.737Z,2.9
2019-01-08T01:47:04.484Z,2.8
2019-01-08T01:52:06.652Z,2.8
2019-01-08T01:57:09.121Z,2.8
2019-01-08T02:02:11.570Z,2.8
2019-01-08T02:07:14.021Z,2.8
2019-01-08T02:12:16.512Z,2.9
2019-01-08T02:17:18.923Z,2.9
2019-01-08T02:22:21.389Z,2.9
2019-01-08T02:27:23.851Z,2.9
2019-01-08T02:32:26.319Z,2.8
2019-01-08T02:37:28.773Z,2.8
2019-01-08T02:42:31.304Z,2.7
2019-01-08T02:47:33.675Z,2.8
2019-01-08T02:52:36.158Z,2.8
2019-01-08T02:57:38.592Z,2.9
2019-01-08T03:02:41.071Z,3
2019-01-08T03:07:43.511Z,2.9
2019-01-08T03:17:48.481Z,2.8
2019-01-08T03:22:50.895Z,2.7
2019-01-08T03:27:53.335Z,2.7
2019-01-08T03:32:55.818Z,2.7
2019-01-08T03:37:58.262Z,2.7
2019-01-08T03:43:00.713Z,2.8
2019-01-08T03:48:03.173Z,2.8
2019-01-08T03:53:05.620Z,2.9
2019-01-08T03:58:08.101Z,2.9
2019-01-08T04:03:10.536Z,3
2019-01-08T04:08:12.986Z,3
2019-01-08T04:13:15.439Z,3.1
2019-01-08T04:18:18.017Z,3.1
2019-01-08T04:23:20.369Z,3.1
2019-01-08T04:28:22.812Z,3
2019-01-08T04:33:25.269Z,2.9
2019-01-08T04:38:27.728Z,2.9
2019-01-08T04:43:30.190Z,2.9
2019-01-08T04:48:32.640Z,2.9
2019-01-08T04:53:35.104Z,2.9
2019-01-08T04:58:37.552Z,2.9
2019-01-08T05:03:40.053Z,2.8
2019-01-08T05:08:42.465Z,2.8
2019-01-08T05:13:44.981Z,2.7
2019-01-08T05:18:47.418Z,2.6
2019-01-08T05:23:49.842Z,2.5
2019-01-08T05:28:52.316Z,2.4
2019-01-08T05:33:59.736Z,2.3
2019-01-08T05:38:57.219Z,2.3
2019-01-08T05:43:59.672Z,2.3
2019-01-08T05:49:02.151Z,2.3
2019-01-08T05:54:04.644Z,2.2
2019-01-08T05:59:07.097Z,2.2
2019-01-08T06:04:09.488Z,2.1
2019-01-08T06:09:11.953Z,2.1
2019-01-08T06:14:14.409Z,2.2
2019-01-08T06:19:16.862Z,2.3
2019-01-08T06:24:19.417Z,2.3
2019-01-08T06:29:21.789Z,2.4
2019-01-08T06:34:24.229Z,2.3
2019-01-08T06:39:26.690Z,2.3
2019-01-08T06:44:29.196Z,2.3
2019-01-08T06:49:31.600Z,2.4
2019-01-08T06:54:34.069Z,2.5
2019-01-08T07:04:38.976Z,2.6
2019-01-08T07:09:41.439Z,2.6
2019-01-08T07:14:43.894Z,2.6
2019-01-08T07:19:46.459Z,2.6
2019-01-08T07:24:48.809Z,2.6
2019-01-08T07:29:51.271Z,2.5
2019-01-08T07:34:53.709Z,2.6
2019-01-08T07:39:56.171Z,2.8
2019-01-08T07:44:58.706Z,2.9
2019-01-08T07:50:01.138Z,3
2019-01-08T07:55:03.550Z,3.2
2019-01-08T08:00:06.018Z,3.3
2019-01-08T08:05:08.468Z,3.3
2019-01-08T08:10:10.945Z,3.3
2019-01-08T08:15:13.367Z,3.3
2019-01-08T08:20:15.884Z,3.3
2019-01-08T08:25:18.303Z,3.3
2019-01-08T08:30:20.753Z,3.3
2019-01-08T08:35:23.218Z,3.3
2019-01-08T08:40:25.686Z,3.3
2019-01-08T08:45:28.108Z,3.4
2019-01-08T08:50:30.629Z,3.5
2019-01-08T08:55:33.029Z,3.6
2019-01-08T09:00:35.521Z,3.6
2019-01-08T09:05:37.942Z,3.6
2019-01-08T09:10:40.438Z,3.6
2019-01-08T09:15:42.872Z,3.6
2019-01-08T09:20:45.334Z,3.6
2019-01-08T09:25:47.820Z,3.5
2019-01-08T09:30:50.273Z,3.5
2019-01-08T09:35:52.693Z,3.5
2019-01-08T09:40:55.166Z,3.4
2019-01-08T09:45:57.626Z,3.3
2019-01-08T09:51:00.077Z,3.3
2019-01-08T09:56:02.567Z,3.2
2019-01-08T10:01:04.989Z,3.2
2019-01-08T10:06:07.460Z,3.2
2019-01-08T10:11:09.994Z,3.2
2019-01-08T10:16:12.365Z,3.2
2019-01-08T10:21:14.828Z,3.2
2019-01-08T10:26:17.385Z,3.3
2019-01-08T10:46:27.120Z,3.6
2019-01-08T10:51:29.556Z,3.7
2019-01-08T10:56:32.008Z,3.6
2019-01-08T11:01:40.426Z,3.6
2019-01-08T11:06:36.921Z,3.6
2019-01-08T11:11:39.375Z,3.7
2019-01-08T11:16:41.923Z,3.7
2019-01-08T11:21:44.341Z,3.7
2019-01-08T11:26:46.757Z,3.8
2019-01-08T11:31:49.377Z,3.8
2019-01-08T11:36:51.678Z,3.7
2019-01-08T11:41:54.142Z,3.7
2019-01-08T11:46:56.588Z,3.7
2019-01-08T11:51:59.075Z,3.7
2019-01-08T11:57:01.513Z,3.6
2019-01-08T12:02:04.065Z,3.6
2019-01-08T12:07:06.428Z,3.6
2019-01-08T12:12:08.902Z,3.8
2019-01-08T12:17:11.399Z,3.8
2019-01-08T12:22:13.787Z,3.7
2019-01-08T12:27:16.314Z,3.6
2019-01-08T12:32:18.716Z,3.5
2019-01-08T12:37:21.268Z,3.3
2019-01-08T12:42:23.639Z,3.2
2019-01-08T12:47:26.082Z,3.1
2019-01-08T12:52:28.549Z,2.9
2019-01-08T12:57:30.986Z,2.9
2019-01-08T13:02:33.460Z,2.8
2019-01-08T13:07:35.976Z,2.8
2019-01-08T13:12:38.382Z,2.7
2019-01-08T13:17:40.826Z,2.7
2019-01-08T13:22:43.272Z,2.6
2019-01-08T13:27:45.773Z,2.6
2019-01-08T13:32:48.201Z,2.5
2019-01-08T13:37:50.641Z,2.6
2019-01-08T13:42:53.099Z,2.6
2019-01-08T13:47:55.565Z,2.7
2019-01-08T13:52:58.008Z,2.7
2019-01-08T13:58:00.472Z,2.6
2019-01-08T14:03:03.022Z,2.6
2019-01-08T14:08:05.396Z,2.5
2019-01-08T14:13:07.986Z,2.6
2019-01-08T14:18:10.324Z,2.6
2019-01-08T14:23:12.763Z,2.7
2019-01-08T14:28:15.218Z,2.7
2019-01-08T14:33:17.755Z,2.8
2019-01-08T14:38:20.127Z,2.8
2019-01-08T14:43:22.582Z,2.8
2019-01-08T14:48:25.058Z,2.9
2019-01-08T14:53:27.501Z,2.9
2019-01-08T14:58:30.003Z,2.9
2019-01-08T15:03:32.468Z,2.9
2019-01-08T15:08:34.895Z,2.8
2019-01-08T15:13:37.321Z,2.9
2019-01-08T15:18:39.794Z,3
2019-01-08T15:23:42.331Z,3.1
2019-01-08T15:28:44.697Z,3.2
2019-01-08T15:33:47.157Z,3.2
2019-01-08T15:38:49.617Z,3.3
2019-01-08T15:43:52.074Z,3.4
2019-01-08T15:48:54.545Z,3.4
2019-01-08T15:53:58.068Z,3.4
2019-01-08T15:58:59.511Z,3.4
2019-01-08T16:04:02.019Z,3.4
2019-01-08T16:09:04.359Z,3.3
2019-01-08T16:14:06.920Z,3.2
2019-01-08T16:19:09.287Z,3
2019-01-08T16:24:11.738Z,2.8
2019-01-08T16:29:14.291Z,2.8
2019-01-08T16:34:16.650Z,2.9
2019-01-08T16:39:19.137Z,3
2019-01-08T16:44:21.573Z,3.1
2019-01-08T16:49:24.041Z,3.1
2019-01-08T16:54:26.473Z,3
2019-01-08T16:59:28.924Z,2.9
2019-01-08T17:04:31.396Z,2.8
2019-01-08T17:09:33.858Z,2.7
2019-01-08T17:14:36.308Z,2.8
2019-01-08T17:19:38.772Z,2.9
2019-01-08T17:24:41.240Z,2.9
2019-01-08T17:29:43.683Z,2.9
2019-01-08T17:34:46.198Z,2.9
2019-01-08T17:39:48.613Z,2.8
2019-01-08T17:44:51.058Z,2.7
2019-01-08T17:49:53.529Z,2.7
2019-01-08T17:54:55.949Z,2.6
2019-01-08T17:59:58.410Z,2.6
2019-01-08T18:05:00.872Z,2.7
2019-01-08T18:10:03.447Z,2.7
2019-01-08T18:15:05.824Z,2.7
2019-01-08T18:20:08.267Z,2.7
2019-01-08T18:25:10.728Z,2.6
2019-01-08T18:30:13.162Z,2.5
2019-01-08T18:35:15.614Z,2.4
2019-01-08T18:40:18.067Z,2.3
2019-01-08T18:45:20.603Z,2.2
2019-01-08T18:50:23.025Z,2.1
2019-01-08T18:55:25.504Z,2.1
2019-01-08T19:00:27.969Z,2.1
2019-01-08T19:05:30.452Z,2.1
2019-01-08T19:10:32.826Z,2.1
2019-01-08T19:15:35.283Z,2.1
2019-01-08T19:20:37.739Z,2.1
2019-01-08T19:25:40.214Z,2.1
2019-01-08T19:30:42.651Z,2.1
2019-01-08T19:35:45.100Z,2.1
2019-01-08T19:40:47.623Z,2.1
2019-01-08T19:45:50.010Z,2
2019-01-08T19:50:52.482Z,2
2019-01-08T19:55:54.930Z,2
2019-01-08T20:00:57.464Z,2
2019-01-08T20:05:59.833Z,2
2019-01-08T20:11:02.377Z,2.1
2019-01-08T20:16:04.780Z,2.1
2019-01-08T20:21:07.212Z,2
2019-01-08T20:26:09.682Z,2
2019-01-08T20:31:12.149Z,2
2019-01-08T20:36:14.610Z,2
2019-01-08T20:41:17.096Z,2
2019-01-08T20:46:19.493Z,2
2019-01-08T20:51:22.003Z,2
2019-01-08T20:56:24.425Z,2
2019-01-08T21:01:27.164Z,1.9
2019-01-08T21:06:29.343Z,1.9
2019-01-08T21:11:31.787Z,1.9
2019-01-08T21:16:34.235Z,1.9
2019-01-08T21:21:36.699Z,1.9
2019-01-08T21:26:39.165Z,1.8
2019-01-08T21:31:41.616Z,1.8
2019-01-08T21:36:44.101Z,1.8
2019-01-08T21:41:46.521Z,1.8
2019-01-08T21:46:48.999Z,1.7
2019-01-08T21:51:51.444Z,1.8
2019-01-08T21:56:53.926Z,1.7
2019-01-08T22:01:56.364Z,1.7
2019-01-08T22:06:58.827Z,1.7
2019-01-08T22:12:01.315Z,1.6
2019-01-08T22:17:03.716Z,1.5
2019-01-08T22:22:06.188Z,1.5
2019-01-08T22:27:08.651Z,1.5
2019-01-08T22:32:11.151Z,1.5
2019-01-08T22:37:13.579Z,1.5
2019-01-08T22:42:16.021Z,1.5
2019-01-08T22:47:18.465Z,1.4
2019-01-08T22:52:20.928Z,1.5
2019-01-08T22:57:23.376Z,1.5
2019-01-08T23:02:25.870Z,1.5
2019-01-08T23:07:28.300Z,1.5
2019-01-08T23:12:30.779Z,1.4
2019-01-08T23:17:33.211Z,1.4
2019-01-08T23:22:35.681Z,1.3
2019-01-08T23:27:38.171Z,1.3
2019-01-08T23:32:40.597Z,1.4
2019-01-08T23:37:43.136Z,1.3
2019-01-08T23:42:45.502Z,1.3
2019-01-08T23:47:47.966Z,1.4
2019-01-08T23:52:50.419Z,1.4
2019-01-08T23:57:52.926Z,1.3
